createdAt,value
2022-08-28T10:05:57.538Z,53.70
2022-08-28T10:08:29.811Z,52.73
2022-08-28T10:11:01.028Z,54.40
2022-08-28T10:13:31.882Z,51.60
2022-08-28T10:16:06.161Z,51.73
2022-08-28T10:18:38.021Z,52.30
2022-08-28T10:21:12.583Z,52.33
2022-08-28T10:38:02.049Z,51.23
2022-08-28T10:40:31.314Z,53.80
2022-08-28T10:43:03.635Z,56.67
2022-08-28T10:45:34.251Z,55.00
2022-08-28T10:48:07.058Z,54.43
2022-08-28T10:50:40.782Z,56.87
2022-08-28T10:53:12.184Z,54.30
2022-08-28T10:55:45.504Z,57.10
2022-08-28T10:58:13.965Z,57.67
2022-08-28T11:00:55.152Z,56.23
2022-08-28T11:03:34.482Z,55.40
2022-08-28T11:06:05.756Z,51.37
2022-08-28T11:08:36.642Z,55.70
2022-08-28T11:11:06.309Z,54.20
2022-08-28T11:13:42.633Z,56.83
2022-08-28T11:16:14.695Z,54.63
2022-08-28T11:19:00.588Z,56.07
2022-08-28T11:21:30.403Z,53.40
2022-08-28T11:24:02.961Z,57.30
2022-08-28T11:26:33.847Z,57.77
2022-08-28T11:29:04.295Z,53.30
2022-08-28T11:31:37.415Z,55.70
2022-08-28T11:34:06.197Z,53.07
2022-08-28T11:36:52.770Z,60.00
2022-08-28T11:39:23.075Z,61.90
2022-08-28T11:42:15.210Z,59.37
2022-08-28T11:44:45.830Z,54.23
2022-08-28T11:47:32.432Z,55.47
2022-08-28T11:50:04.662Z,55.30
2022-08-28T11:52:43.621Z,60.27
2022-08-28T11:55:24.736Z,59.33
2022-08-28T12:00:35.629Z,58.03
2022-08-28T12:03:11.813Z,53.57
2022-08-28T12:05:45.381Z,60.83
2022-08-28T12:08:14.417Z,58.77
2022-08-28T12:11:00.318Z,59.30
2022-08-28T12:13:45.090Z,57.73
2022-08-28T12:16:13.589Z,55.27
2022-08-28T12:19:03.714Z,55.37
2022-08-28T12:21:32.844Z,60.87
2022-08-28T12:24:09.083Z,57.10
2022-08-28T12:26:47.089Z,62.93
2022-08-28T12:29:27.126Z,57.97
2022-08-28T12:32:16.107Z,61.10
2022-08-28T12:35:05.627Z,61.43
2022-08-28T12:37:39.574Z,64.87
2022-08-28T12:40:24.622Z,58.60
2022-08-28T12:42:56.101Z,61.20
2022-08-28T12:45:26.214Z,60.13
2022-08-28T12:47:56.590Z,61.83
2022-08-28T12:50:30.059Z,61.97
2022-08-28T12:53:00.095Z,60.33
2022-08-28T12:55:28.570Z,63.60
2022-08-28T12:57:58.143Z,58.77
2022-08-28T13:00:27.118Z,56.97
2022-08-28T13:02:56.632Z,58.83
2022-08-28T13:05:32.158Z,58.47
2022-08-28T13:08:01.718Z,59.40
2022-08-28T13:10:31.004Z,61.97
2022-08-28T13:13:05.415Z,55.50
2022-08-28T13:15:43.855Z,57.43
2022-08-28T13:18:12.202Z,54.83
2022-08-28T13:20:40.413Z,56.53
2022-08-28T13:23:08.901Z,53.70
2022-08-28T13:25:37.837Z,54.10
2022-08-28T13:28:14.803Z,57.53
2022-08-28T13:30:43.076Z,53.50
2022-08-28T13:33:20.853Z,54.17
2022-08-28T13:35:49.164Z,56.10
2022-08-28T13:38:18.715Z,53.60
2022-08-28T13:40:58.298Z,55.37
2022-08-28T13:43:29.558Z,52.73
2022-08-28T13:45:57.871Z,52.63
2022-08-28T13:48:27.430Z,53.67
2022-08-28T13:50:58.403Z,54.73
2022-08-28T13:53:27.281Z,53.17
2022-08-28T13:55:55.744Z,64.10
2022-08-28T13:58:24.029Z,54.63
2022-08-28T14:00:53.697Z,55.70
2022-08-28T14:03:37.670Z,53.97
2022-08-28T14:06:06.852Z,55.73
2022-08-28T14:08:35.265Z,50.17
2022-08-28T14:11:06.192Z,49.77
2022-08-28T14:13:34.446Z,51.63
2022-08-28T14:16:05.426Z,47.27
2022-08-28T14:18:34.602Z,48.43
2022-08-28T14:21:02.755Z,46.77
2022-08-28T14:23:30.946Z,50.10
2022-08-28T14:25:59.139Z,49.50
2022-08-28T14:28:27.378Z,48.17
2022-08-28T14:30:55.627Z,47.43
2022-08-28T14:33:25.190Z,47.80
2022-08-28T14:35:53.545Z,48.20
2022-08-28T14:38:21.763Z,51.00
2022-08-28T14:40:50.259Z,50.77
2022-08-28T14:43:21.477Z,46.70
2022-08-28T14:45:52.541Z,47.87
2022-08-28T14:48:20.771Z,48.43
2022-08-28T14:50:50.308Z,48.87
2022-08-28T14:53:18.693Z,47.43
2022-08-28T14:55:47.732Z,48.70
2022-08-28T14:58:16.689Z,46.53
2022-08-28T15:00:47.387Z,49.97
2022-08-28T15:03:16.163Z,51.10
2022-08-28T15:05:44.625Z,52.63
2022-08-28T15:08:15.425Z,53.03
2022-08-28T15:10:44.490Z,52.47
2022-08-28T15:13:13.307Z,49.80
2022-08-28T15:15:43.964Z,49.33
2022-08-28T15:18:12.698Z,49.27
2022-08-28T15:20:41.400Z,48.53
2022-08-28T15:23:09.919Z,46.40
2022-08-28T15:25:39.814Z,47.17
2022-08-28T15:28:08.281Z,50.87
2022-08-28T15:30:37.008Z,46.77
2022-08-28T15:33:05.769Z,47.93
2022-08-28T15:35:40.149Z,47.83
2022-08-28T15:38:08.859Z,48.77
2022-08-28T15:40:54.880Z,48.17
2022-08-28T15:43:24.547Z,47.00
2022-08-28T15:49:44.794Z,45.43
2022-08-28T15:52:18.495Z,46.77
2022-08-28T15:54:46.830Z,44.60
2022-08-28T15:57:33.656Z,46.03
2022-08-28T16:00:06.396Z,45.37
2022-08-28T16:02:36.846Z,45.70
2022-08-28T16:05:05.395Z,44.00
2022-08-28T16:07:33.599Z,45.03
